Time;durP1;ratioP1;P1;durP2;ratioP2;P2;SDS_P1;SDS_P2;PMS_P1;PMS_P2;Temp;Humidity;BMP_temperature;BMP_pressure;BME280_temperature;BME280_humidity;BME280_pressure;Samples;Min_cycle;Max_cycle;Signal;HPM_P1;HPM_P2
2022/11/06 00:03:43;;;;;;;25.50;15.38;;;;;;;5.89;67.73;100187.16;10269610;28;20050;-62
2022/11/06 00:08:45;;;;;;;17.63;12.15;;;;;;;5.86;68.06;100193.28;10269686;28;20491;-62
2022/11/06 00:13:48;;;;;;;18.95;11.52;;;;;;;5.92;68.23;100181.84;10274260;28;20050;-61
2022/11/06 00:18:50;;;;;;;15.77;10.80;;;;;;;5.94;68.33;100185.25;10271323;28;20047;-63
2022/11/06 00:23:53;;;;;;;23.38;11.63;;;;;;;5.97;68.63;100172.13;10289763;28;20345;-63
2022/11/06 00:28:55;;;;;;;23.95;14.70;;;;;;;6.04;68.15;100169.25;10271793;28;20051;-62
2022/11/06 00:33:59;;;;;;;22.63;13.32;;;;;;;6.15;68.08;100169.69;10273163;28;20058;-63
2022/11/06 00:39:02;;;;;;;17.70;12.10;;;;;;;6.25;68.11;100157.22;10271453;28;20105;-62
2022/11/06 00:44:03;;;;;;;22.90;12.93;;;;;;;6.25;67.81;100160.69;10268559;28;20095;-63
2022/11/06 00:49:05;;;;;;;19.88;12.73;;;;;;;6.20;67.69;100156.53;10273723;28;20058;-62
2022/11/06 00:54:11;;;;;;;18.70;11.93;;;;;;;5.93;68.29;100163.63;10254641;28;20062;-63
2022/11/06 00:59:13;;;;;;;22.45;12.52;;;;;;;5.82;68.48;100170.94;10280606;28;20074;-62
2022/11/06 01:04:20;;;;;;;31.98;16.90;;;;;;;5.85;68.20;100159.59;10292267;28;20078;-62
2022/11/06 01:09:24;;;;;;;23.60;13.48;;;;;;;5.78;68.14;100164.16;10273647;28;20475;-62
2022/11/06 01:14:27;;;;;;;21.63;12.77;;;;;;;5.58;68.47;100166.63;10267138;28;20051;-63
2022/11/06 01:19:28;;;;;;;22.52;12.50;;;;;;;5.50;68.93;100160.88;10275930;28;20502;-63
2022/11/06 01:24:30;;;;;;;27.85;12.10;;;;;;;5.60;68.82;100175.22;10271057;28;20054;-62
2022/11/06 01:29:32;;;;;;;19.23;11.32;;;;;;;5.91;68.66;100173.22;10277213;28;20101;-62
2022/11/06 01:34:34;;;;;;;19.10;11.60;;;;;;;6.07;68.26;100161.34;10268440;28;20503;-63
2022/11/06 01:39:35;;;;;;;19.08;11.82;;;;;;;6.07;68.29;100158.75;10277910;28;20047;-63
2022/11/06 01:44:43;;;;;;;16.90;10.60;;;;;;;6.20;68.22;100162.59;10284917;28;20415;-63
2022/11/06 01:49:45;;;;;;;18.38;10.30;;;;;;;6.30;68.02;100152.72;10279421;28;20050;-62
2022/11/06 01:54:51;;;;;;;23.15;12.75;;;;;;;6.40;67.97;100155.78;10271675;28;20415;-62
2022/11/06 01:59:54;;;;;;;21.88;12.38;;;;;;;6.32;67.95;100151.75;10301022;28;20066;-62
2022/11/06 02:04:55;;;;;;;20.60;11.88;;;;;;;6.44;67.82;100144.38;10288401;28;20054;-62
2022/11/06 02:09:57;;;;;;;21.95;13.70;;;;;;;6.57;67.33;100138.63;10265199;28;20514;-63
2022/11/06 02:15:23;;;;;;;19.98;12.60;;;;;;;6.59;67.22;100133.38;10269568;28;20387;-63
2022/11/06 02:20:38;;;;;;;20.05;12.10;;;;;;;6.53;67.13;100124.06;10274159;28;20529;-63
2022/11/06 02:25:47;;;;;;;23.15;13.18;;;;;;;6.65;67.23;100120.16;10295765;28;20050;-63
2022/11/06 02:30:51;;;;;;;21.05;11.93;;;;;;;6.65;67.06;100105.41;10284562;28;20059;-63
2022/11/06 02:36:04;;;;;;;19.50;11.93;;;;;;;6.53;67.25;100110.25;10274563;28;20066;-62
2022/11/06 02:41:11;;;;;;;21.95;12.10;;;;;;;6.36;67.56;100110.91;10263194;28;20043;-62
2022/11/06 02:46:22;;;;;;;20.13;12.30;;;;;;;6.49;67.94;100111.28;10263620;28;20058;-63
2022/11/06 02:51:27;;;;;;;22.67;12.25;;;;;;;6.44;67.78;100128.78;10327797;28;20211;-62
2022/11/06 02:56:36;;;;;;;21.38;12.02;;;;;;;6.63;67.95;100121.97;10278269;28;20396;-62
2022/11/06 03:01:46;;;;;;;22.27;11.75;;;;;;;6.80;67.39;100125.56;10275942;28;20047;-62
2022/11/06 03:06:53;;;;;;;22.80;12.77;;;;;;;6.80;67.44;100090.91;10277902;28;20134;-62
2022/11/06 03:12:14;;;;;;;21.95;13.35;;;;;;;6.66;67.59;100093.22;10291051;28;20074;-62
2022/11/06 03:17:22;;;;;;;20.63;12.25;;;;;;;6.33;68.16;100092.84;10273313;28;20388;-62
2022/11/06 03:22:26;;;;;;;21.23;11.60;;;;;;;6.23;68.04;100094.09;10294680;28;20077;-62
2022/11/06 03:27:37;;;;;;;20.50;11.07;;;;;;;6.09;68.25;100099.81;10294458;28;20047;-62
2022/11/06 03:32:49;;;;;;;30.45;13.80;;;;;;;6.01;68.21;100099.28;10294837;28;20054;-62
2022/11/06 03:38:06;;;;;;;19.92;13.10;;;;;;;5.87;68.24;100085.97;10279231;28;20050;-62
2022/11/06 03:43:11;;;;;;;21.52;12.85;;;;;;;5.77;68.04;100079.44;10306368;28;20046;-62
2022/11/06 03:48:43;;;;;;;21.75;13.43;;;;;;;5.63;68.59;100084.31;10307540;28;20631;-62
2022/11/06 03:54:23;;;;;;;24.92;13.27;;;;;;;5.65;68.89;100086.84;10295805;28;20050;-61
2022/11/06 03:59:30;;;;;;;33.20;17.67;;;;;;;5.83;68.74;100071.44;10268498;28;20054;-62
2022/11/06 04:04:49;;;;;;;21.10;11.45;;;;;;;6.03;68.82;100074.09;10276878;28;20054;-62
2022/11/06 04:15:20;;;;;;;18.60;11.43;;;;;;;6.35;68.15;100093.63;10269741;28;20054;-63
2022/11/06 04:31:47;;;;;;;27.33;14.25;;;;;;;6.24;67.38;100104.44;10270590;28;20411;-62
2022/11/06 04:37:10;;;;;;;18.33;11.80;;;;;;;5.86;67.97;100092.06;10284536;28;20547;-62
2022/11/06 04:42:27;;;;;;;24.52;11.82;;;;;;;5.79;68.40;100108.78;10302977;28;20062;-62
2022/11/06 04:47:29;;;;;;;21.23;11.57;;;;;;;5.72;68.26;100111.66;10284255;28;20058;-62
2022/11/06 04:52:32;;;;;;;26.95;14.60;;;;;;;5.53;68.25;100112.31;10269965;28;20182;-62
2022/11/06 04:57:34;;;;;;;24.27;13.38;;;;;;;5.40;68.56;100097.28;10282409;28;20051;-62
2022/11/06 05:02:35;;;;;;;26.98;13.88;;;;;;;5.25;68.71;100097.81;10285146;28;20162;-62
2022/11/06 05:07:37;;;;;;;28.40;14.05;;;;;;;5.23;68.86;100087.50;10284141;28;20046;-62
2022/11/06 05:12:39;;;;;;;22.00;13.13;;;;;;;5.05;69.09;100082.09;10290977;28;20414;-62
2022/11/06 05:17:40;;;;;;;24.35;13.55;;;;;;;5.00;69.25;100073.66;10269223;28;20061;-62
2022/11/06 05:22:57;;;;;;;20.15;12.27;;;;;;;5.02;69.08;100079.63;10281715;28;20054;-62
2022/11/06 05:28:00;;;;;;;26.25;13.60;;;;;;;4.88;69.08;100074.09;10272988;28;20066;-62
2022/11/06 05:33:02;;;;;;;21.00;11.77;;;;;;;4.79;69.53;100059.69;10284383;28;20054;-62
2022/11/06 05:38:03;;;;;;;28.75;13.65;;;;;;;4.87;69.27;100049.91;10286965;28;20043;-62
2022/11/06 05:43:05;;;;;;;19.98;12.25;;;;;;;4.88;69.10;100040.41;10272498;28;20141;-62
2022/11/06 05:48:07;;;;;;;24.20;14.25;;;;;;;4.87;69.12;100036.94;10267346;28;20054;-62
2022/11/06 05:53:09;;;;;;;18.70;12.00;;;;;;;4.87;69.20;100033.50;10292947;28;20050;-62
2022/11/06 05:58:10;;;;;;;35.47;16.35;;;;;;;4.82;69.05;100004.34;10302746;28;20422;-62
2022/11/06 06:03:12;;;;;;;33.95;16.40;;;;;;;4.76;69.16;100001.97;10277380;28;20133;-62
2022/11/06 06:08:15;;;;;;;19.23;12.73;;;;;;;4.68;68.73;100010.84;10265833;28;20073;-63
2022/11/06 06:13:16;;;;;;;284.88;16.33;;;;;;;4.63;69.06;99991.19;10277645;28;20061;-62
2022/11/06 06:18:20;;;;;;;224.07;19.80;;;;;;;4.56;69.31;99982.75;10278468;28;20509;-62
2022/11/06 06:23:21;;;;;;;96.85;23.48;;;;;;;4.55;69.25;99982.81;10274896;28;20046;-62
2022/11/06 06:28:23;;;;;;;45.65;21.08;;;;;;;4.39;68.96;99974.72;10271746;28;20057;-62
2022/11/06 06:33:24;;;;;;;24.15;13.05;;;;;;;4.23;69.50;99976.13;10281785;28;20101;-63
2022/11/06 06:38:26;;;;;;;22.27;12.85;;;;;;;4.32;69.28;99970.66;10267111;28;20058;-62
2022/11/06 06:43:28;;;;;;;18.95;10.65;;;;;;;4.41;69.18;99970.31;10294938;28;20538;-62
2022/11/06 06:48:30;;;;;;;144.88;18.45;;;;;;;4.50;68.85;99972.63;10271660;28;20054;-62
2022/11/06 06:53:33;;;;;;;500.73;25.65;;;;;;;4.43;68.73;99973.72;10287973;28;20046;-62
2022/11/06 06:58:35;;;;;;;332.67;16.38;;;;;;;4.30;69.12;99972.44;10263618;28;20507;-62
2022/11/06 07:03:37;;;;;;;246.10;18.92;;;;;;;4.26;69.08;99967.41;10265219;28;20053;-62
2022/11/06 07:08:39;;;;;;;15.70;8.38;;;;;;;4.35;69.09;99970.53;10266525;28;20058;-62
2022/11/06 07:13:40;;;;;;;88.10;11.30;;;;;;;4.39;68.95;99974.72;10266352;28;20065;-62
2022/11/06 07:18:42;;;;;;;164.45;14.18;;;;;;;4.49;68.61;99965.75;10278095;28;20673;-62
2022/11/06 07:23:45;;;;;;;104.72;13.65;;;;;;;4.62;68.62;99959.25;10288505;28;20050;-62
2022/11/06 07:28:46;;;;;;;111.75;13.88;;;;;;;4.72;68.70;99970.13;10267757;28;20055;-62
2022/11/06 07:33:48;;;;;;;26.77;10.05;;;;;;;4.93;68.28;99968.50;10274952;28;20051;-62
2022/11/06 07:38:50;;;;;;;103.10;14.07;;;;;;;5.14;67.85;99978.94;10270091;28;20050;-62
2022/11/06 07:43:51;;;;;;;45.40;9.52;;;;;;;5.37;67.56;99985.88;10265016;28;20418;-62
2022/11/06 07:48:53;;;;;;;201.40;17.40;;;;;;;5.46;67.40;99986.38;10263952;28;20051;-62
2022/11/06 07:53:55;;;;;;;46.25;13.77;;;;;;;5.65;67.55;99988.25;10270401;28;20046;-62
2022/11/06 07:58:57;;;;;;;25.67;10.93;;;;;;;5.75;67.38;99987.00;10265179;28;20062;-62
2022/11/06 08:03:58;;;;;;;14.88;9.60;;;;;;;5.89;67.16;99990.72;10270231;28;20055;-62
2022/11/06 08:09:04;;;;;;;13.20;8.82;;;;;;;6.14;67.21;99968.06;10275904;28;20054;-62
2022/11/06 08:14:06;;;;;;;16.63;10.07;;;;;;;6.47;66.61;99965.00;10274315;28;20411;-62
2022/11/06 08:19:08;;;;;;;14.00;9.70;;;;;;;6.76;65.95;99964.59;10271674;28;20053;-62
2022/11/06 08:24:09;;;;;;;20.23;11.18;;;;;;;6.97;65.39;99956.69;10288000;28;20885;-61
2022/11/06 08:29:11;;;;;;;16.05;10.20;;;;;;;7.12;65.15;99952.56;10268531;28;20144;-62
2022/11/06 08:34:13;;;;;;;18.35;10.00;;;;;;;7.24;64.84;99954.63;10276059;28;20062;-62
2022/11/06 08:39:15;;;;;;;15.30;10.00;;;;;;;7.36;64.68;99942.78;10269062;28;20770;-62
2022/11/06 08:44:17;;;;;;;14.05;8.00;;;;;;;7.53;64.58;99928.06;10267885;28;20074;-62
2022/11/06 08:49:19;;;;;;;13.52;8.23;;;;;;;7.62;64.49;99932.00;10279980;28;20061;-62
2022/11/06 08:54:20;;;;;;;13.35;8.13;;;;;;;7.62;64.68;99922.44;10265444;28;20061;-62
2022/11/06 08:59:22;;;;;;;13.77;7.43;;;;;;;7.59;64.68;99912.16;10273352;28;20046;-62
2022/11/06 09:04:24;;;;;;;14.15;9.30;;;;;;;7.58;65.16;99905.28;10265753;28;20055;-62
2022/11/06 09:09:30;;;;;;;12.05;7.07;;;;;;;7.65;64.89;99905.84;10292270;28;20050;-62
2022/11/06 09:14:34;;;;;;;12.50;6.70;;;;;;;7.72;65.23;99889.84;10275550;28;20218;-62
2022/11/06 09:19:35;;;;;;;10.73;6.85;;;;;;;7.76;65.27;99882.72;10275993;28;20083;-62
2022/11/06 09:24:37;;;;;;;12.38;6.07;;;;;;;7.87;65.28;99885.66;10272160;28;20511;-62
2022/11/06 09:29:59;;;;;;;13.73;6.93;;;;;;;7.95;64.54;99876.53;10270458;28;20062;-62
2022/11/06 09:35:00;;;;;;;13.52;7.15;;;;;;;8.03;64.28;99853.56;10277251;28;20046;-62
2022/11/06 09:40:03;;;;;;;12.27;6.70;;;;;;;8.23;64.29;99846.50;10268407;28;20514;-62
2022/11/06 09:45:16;;;;;;;16.27;5.70;;;;;;;8.31;63.86;99850.41;10273450;28;20073;-63
2022/11/06 09:50:24;;;;;;;10.98;5.90;;;;;;;8.40;64.53;99844.72;10277809;28;20046;-63
2022/11/06 09:55:34;;;;;;;6.60;3.35;;;;;;;8.47;63.52;99840.88;10273916;28;20105;-62
2022/11/06 10:00:38;;;;;;;9.52;4.15;;;;;;;8.63;63.30;99827.84;10276327;28;20053;-62
2022/11/06 10:05:41;;;;;;;10.18;3.75;;;;;;;8.85;62.60;99831.03;10266183;28;20549;-63
2022/11/06 10:11:03;;;;;;;7.95;3.47;;;;;;;8.87;61.59;99813.53;10289415;28;20499;-63
2022/11/06 10:16:44;;;;;;;9.38;3.40;;;;;;;9.03;60.83;99816.97;10263473;28;20582;-63
2022/11/06 10:22:22;;;;;;;9.18;3.35;;;;;;;9.34;60.13;99810.88;10267373;28;20392;-62
2022/11/06 10:27:39;;;;;;;8.13;3.10;;;;;;;9.85;58.59;99797.44;10277604;28;20054;-62
2022/11/06 10:33:03;;;;;;;7.47;2.88;;;;;;;10.20;58.21;99790.13;10267206;28;20414;-63
2022/11/06 10:38:16;;;;;;;7.10;2.80;;;;;;;10.25;56.82;99785.47;10271563;28;20101;-62
2022/11/06 10:43:42;;;;;;;5.80;2.38;;;;;;;10.29;56.14;99779.97;10267476;28;20057;-62
2022/11/06 10:49:13;;;;;;;5.00;2.30;;;;;;;10.28;55.74;99769.59;10264249;28;20089;-62
2022/11/06 10:54:44;;;;;;;7.38;2.88;;;;;;;10.17;55.47;99757.19;10270068;28;20458;-63
2022/11/06 10:59:47;;;;;;;4.60;2.53;;;;;;;10.22;57.26;99751.66;10279612;28;20043;-62
2022/11/06 11:04:49;;;;;;;8.43;2.90;;;;;;;10.09;56.81;99740.28;10263252;28;20134;-62
2022/11/06 11:09:58;;;;;;;6.78;2.50;;;;;;;10.24;56.77;99721.03;10277712;28;20062;-63
2022/11/06 11:15:09;;;;;;;6.38;2.97;;;;;;;10.33;55.12;99716.13;10270329;28;20491;-62
2022/11/06 11:20:32;;;;;;;5.97;2.90;;;;;;;10.22;53.46;99700.25;10279895;28;20435;-63
2022/11/06 11:25:34;;;;;;;5.65;3.33;;;;;;;10.29;55.52;99683.25;10284894;28;20238;-62
2022/11/06 11:30:36;;;;;;;7.05;3.50;;;;;;;10.59;55.32;99659.56;10266968;28;20062;-63
2022/11/06 11:35:38;;;;;;;7.15;3.70;;;;;;;10.78;54.79;99657.44;10270508;28;20051;-63
2022/11/06 11:40:40;;;;;;;7.53;3.85;;;;;;;10.59;54.49;99635.16;10271714;28;20471;-64
2022/11/06 11:45:41;;;;;;;9.23;4.40;;;;;;;10.70;54.81;99617.88;10288833;28;20046;-63
2022/11/06 11:50:43;;;;;;;6.32;4.07;;;;;;;10.74;54.19;99614.13;10274456;28;20061;-63
2022/11/06 11:55:49;;;;;;;7.15;3.97;;;;;;;11.01;53.31;99627.97;10284123;28;20062;-64
2022/11/06 12:01:03;;;;;;;7.72;3.70;;;;;;;11.00;52.23;99620.25;10273846;28;20061;-64
2022/11/06 12:06:08;;;;;;;6.63;3.40;;;;;;;10.82;51.50;99601.38;10283205;28;20047;-65
2022/11/06 12:11:24;;;;;;;5.88;3.80;;;;;;;10.68;52.07;99579.66;10268323;28;20061;-64
2022/11/06 12:16:25;;;;;;;6.55;4.03;;;;;;;10.80;52.58;99582.31;10273287;28;20058;-64
2022/11/06 12:21:34;;;;;;;9.20;4.80;;;;;;;10.91;52.01;99587.66;10281706;28;20058;-64
2022/11/06 12:26:53;;;;;;;6.20;4.13;;;;;;;10.96;51.03;99603.06;10316814;28;20054;-64
2022/11/06 12:32:01;;;;;;;6.63;4.25;;;;;;;10.91;51.67;99586.84;10286770;28;20066;-64
2022/11/06 12:37:22;;;;;;;5.55;3.85;;;;;;;10.54;52.10;99564.91;10298994;28;20423;-64
2022/11/06 12:42:28;;;;;;;8.80;4.05;;;;;;;10.50;52.42;99542.50;10309663;28;20054;-64
2022/11/06 12:47:46;;;;;;;7.82;4.53;;;;;;;10.37;52.58;99528.53;10294265;28;20504;-64
2022/11/06 12:53:09;;;;;;;6.45;3.83;;;;;;;10.37;52.34;99526.78;10307516;28;20506;-64
2022/11/06 12:58:42;;;;;;;6.45;3.72;;;;;;;10.54;52.21;99528.28;10274131;28;20058;-64
2022/11/06 13:03:53;;;;;;;8.85;4.22;;;;;;;10.46;52.64;99501.81;10297488;28;20080;-64
2022/11/06 13:09:17;;;;;;;8.13;4.13;;;;;;;10.22;52.17;99488.56;10307796;28;20080;-64
2022/11/06 13:14:23;;;;;;;8.50;3.85;;;;;;;10.15;52.64;99495.13;10296234;28;20047;-64
2022/11/06 13:19:50;;;;;;;7.13;4.45;;;;;;;9.91;53.74;99480.19;10281799;28;20425;-64
2022/11/06 13:25:00;;;;;;;7.90;4.00;;;;;;;9.88;53.74;99478.63;10275815;28;20069;-64
2022/11/06 13:30:11;;;;;;;9.10;4.93;;;;;;;10.08;53.77;99466.88;10271663;28;20061;-64
2022/11/06 13:35:20;;;;;;;10.55;5.70;;;;;;;10.02;53.50;99467.28;10287382;28;20515;-64
2022/11/06 13:40:42;;;;;;;10.30;5.72;;;;;;;9.94;54.41;99459.09;10283854;28;20174;-64
2022/11/06 13:45:48;;;;;;;10.00;5.38;;;;;;;10.01;54.34;99463.81;10290509;28;20206;-63
2022/11/06 13:51:05;;;;;;;10.63;5.72;;;;;;;9.98;54.95;99444.91;10267319;28;20047;-64
2022/11/06 13:56:31;;;;;;;9.65;5.47;;;;;;;10.00;53.94;99437.78;10261177;28;20062;-63
2022/11/06 14:02:00;;;;;;;8.98;5.75;;;;;;;9.97;54.44;99445.84;10264314;28;20077;-63
2022/11/06 14:07:04;;;;;;;9.20;5.47;;;;;;;9.98;55.09;99455.34;10264924;28;20054;-64
2022/11/06 14:12:11;;;;;;;6.90;4.55;;;;;;;9.86;54.77;99437.84;10265859;28;20054;-64
2022/11/06 14:17:15;;;;;;;8.10;4.57;;;;;;;9.92;54.99;99447.91;10264879;28;20061;-64
2022/11/06 14:22:26;;;;;;;9.50;4.25;;;;;;;9.95;53.95;99437.28;10270576;28;20708;-64
2022/11/06 14:27:28;;;;;;;9.95;4.10;;;;;;;10.06;54.35;99438.25;10279936;28;20054;-63
2022/11/06 14:32:29;;;;;;;7.53;4.18;;;;;;;10.17;54.18;99425.31;10276421;28;20062;-64
2022/11/06 14:37:45;;;;;;;6.88;3.88;;;;;;;10.12;54.01;99442.22;10301268;28;20392;-64
2022/11/06 14:42:47;;;;;;;9.43;3.58;;;;;;;10.04;54.68;99441.88;10288396;28;20053;-64
2022/11/06 14:47:54;;;;;;;10.90;3.63;;;;;;;10.01;54.84;99431.66;10268105;28;20054;-64
2022/11/06 14:53:19;;;;;;;7.22;3.85;;;;;;;9.83;53.18;99425.00;10301390;28;20066;-64
2022/11/06 14:58:26;;;;;;;7.60;3.53;;;;;;;9.78;53.83;99400.94;10287018;28;20051;-64
2022/11/06 15:03:33;;;;;;;6.53;4.10;;;;;;;9.59;53.85;99409.09;10264375;28;20485;-64
2022/11/06 15:08:51;;;;;;;6.53;3.70;;;;;;;9.50;54.54;99418.34;10263995;28;20479;-64
2022/11/06 15:13:53;;;;;;;9.25;4.25;;;;;;;9.51;54.90;99414.81;10263485;28;20076;-64
2022/11/06 15:18:54;;;;;;;6.30;3.90;;;;;;;9.50;54.94;99407.91;10269241;28;20049;-64
2022/11/06 15:24:07;;;;;;;5.25;3.75;;;;;;;9.39;54.53;99405.16;10283701;28;20073;-64
2022/11/06 15:29:15;;;;;;;5.90;3.80;;;;;;;9.44;54.80;99397.84;10284338;28;20419;-64
2022/11/06 15:34:19;;;;;;;6.97;4.18;;;;;;;9.41;54.85;99384.16;10269426;28;20055;-64
2022/11/06 15:39:37;;;;;;;6.78;4.00;;;;;;;9.32;55.38;99375.13;10271915;28;20526;-64
2022/11/06 15:44:40;;;;;;;7.20;4.20;;;;;;;9.31;55.68;99394.34;10272827;28;20519;-64
2022/11/06 15:49:42;;;;;;;9.23;4.40;;;;;;;9.40;56.19;99414.63;10269026;28;20051;-64
2022/11/06 15:54:44;;;;;;;10.40;5.22;;;;;;;9.29;56.58;99406.66;10268092;28;20450;-64
2022/11/06 15:59:46;;;;;;;7.50;4.03;;;;;;;9.29;56.35;99398.00;10288795;28;20050;-64
2022/11/06 16:04:49;;;;;;;7.47;4.07;;;;;;;9.18;56.62;99383.00;10270362;28;20050;-63
2022/11/06 16:09:51;;;;;;;8.65;5.57;;;;;;;9.16;56.92;99387.47;10285109;28;20050;-63
2022/11/06 16:14:52;;;;;;;8.13;4.03;;;;;;;9.19;57.11;99402.09;10270159;28;20554;-63
2022/11/06 16:19:58;;;;;;;6.95;3.83;;;;;;;9.18;57.25;99392.63;10287489;28;20074;-64
2022/11/06 16:25:04;;;;;;;7.18;3.90;;;;;;;9.18;57.96;99406.47;10268257;28;20479;-63
2022/11/06 16:30:06;;;;;;;6.75;3.92;;;;;;;9.24;57.57;99390.44;10268960;28;20047;-63
2022/11/06 16:35:34;;;;;;;6.75;4.00;;;;;;;9.26;57.60;99399.00;10278664;28;20402;-64
2022/11/06 16:40:53;;;;;;;9.73;4.10;;;;;;;9.24;57.50;99400.88;10279597;28;20409;-65
2022/11/06 16:46:04;;;;;;;5.88;4.07;;;;;;;9.31;57.92;99393.50;10274691;28;20069;-64
2022/11/06 16:51:14;;;;;;;6.53;4.43;;;;;;;9.27;57.51;99394.63;10288505;28;20058;-65
2022/11/06 16:56:22;;;;;;;7.22;4.57;;;;;;;9.24;57.78;99381.81;10287921;28;20066;-64
2022/11/06 17:01:25;;;;;;;6.38;4.65;;;;;;;9.23;58.04;99370.53;10282849;28;20057;-64
2022/11/06 17:06:33;;;;;;;7.78;3.97;;;;;;;9.29;58.73;99357.09;10280863;28;20050;-64
2022/11/06 17:11:34;;;;;;;8.07;4.32;;;;;;;9.25;59.05;99331.28;10279708;28;20050;-64
2022/11/06 17:16:48;;;;;;;9.98;5.40;;;;;;;8.96;60.40;99343.53;10271965;28;20767;-65
2022/11/06 17:21:50;;;;;;;10.63;5.63;;;;;;;9.01;60.40;99330.22;10286411;28;20055;-64
2022/11/06 17:26:53;;;;;;;12.65;6.20;;;;;;;9.06;61.34;99334.22;10290144;28;20056;-65
2022/11/06 17:31:55;;;;;;;12.50;6.90;;;;;;;8.94;61.55;99313.28;10278814;28;20058;-64
2022/11/06 17:36:57;;;;;;;7.65;5.57;;;;;;;8.76;61.72;99330.91;10287443;28;20203;-64
2022/11/06 17:41:58;;;;;;;7.68;5.60;;;;;;;8.81;61.63;99313.22;10278393;28;20061;-64
2022/11/06 17:47:00;;;;;;;7.57;5.43;;;;;;;8.85;61.65;99306.88;10278868;28;20081;-64
2022/11/06 17:52:02;;;;;;;8.65;5.00;;;;;;;8.80;61.82;99288.06;10289844;28;20061;-64
2022/11/06 17:57:06;;;;;;;8.07;5.55;;;;;;;8.83;62.90;99356.50;10277481;28;20047;-65
2022/11/06 18:02:15;;;;;;;9.73;5.60;;;;;;;8.85;62.93;99375.50;10282121;28;20053;-64
2022/11/06 18:07:37;;;;;;;8.85;6.32;;;;;;;8.92;62.23;99369.91;10277582;28;20087;-64
2022/11/06 18:12:38;;;;;;;11.15;7.95;;;;;;;8.96;62.70;99374.84;10272981;28;20051;-64
2022/11/06 18:17:41;;;;;;;8.25;5.55;;;;;;;8.93;62.44;99368.97;10269812;28;20046;-65
2022/11/06 18:22:43;;;;;;;9.23;5.82;;;;;;;8.97;62.41;99381.75;10272489;28;20503;-64
2022/11/06 18:27:45;;;;;;;9.93;5.47;;;;;;;9.03;61.78;99377.91;10281744;28;20055;-64
2022/11/06 18:32:46;;;;;;;8.02;5.40;;;;;;;9.04;62.08;99369.13;10273644;28;20526;-65
2022/11/06 18:37:48;;;;;;;6.97;4.80;;;;;;;9.14;61.78;99350.22;10279247;28;20046;-64
2022/11/06 18:42:53;;;;;;;7.05;4.45;;;;;;;9.04;61.18;99309.16;10277152;28;20065;-64
2022/11/06 18:47:55;;;;;;;6.78;4.40;;;;;;;8.98;61.66;99309.53;10287391;28;20042;-64
2022/11/06 18:52:57;;;;;;;6.85;4.18;;;;;;;8.96;61.32;99335.72;10282190;28;20074;-65
2022/11/06 18:57:59;;;;;;;5.80;3.58;;;;;;;9.01;60.39;99346.72;10266898;28;20526;-64
2022/11/06 19:03:00;;;;;;;7.10;4.32;;;;;;;9.01;60.50;99331.06;10275681;28;20046;-64
2022/11/06 19:08:02;;;;;;;10.40;6.25;;;;;;;8.76;61.67;99329.16;10286977;28;20306;-63
2022/11/06 19:13:04;;;;;;;12.85;7.03;;;;;;;8.68;62.31;99338.38;10274958;28;20054;-64
2022/11/06 19:18:06;;;;;;;9.15;5.80;;;;;;;8.62;61.97;99357.84;10279116;28;20046;-64
2022/11/06 19:23:11;;;;;;;8.05;5.07;;;;;;;8.51;61.81;99348.97;10276050;28;20065;-65
2022/11/06 19:28:15;;;;;;;5.43;4.15;;;;;;;8.55;61.16;99340.03;10279428;28;20153;-64
2022/11/06 19:33:17;;;;;;;7.38;3.92;;;;;;;8.55;61.01;99348.69;10269522;28;20062;-64
2022/11/06 19:38:20;;;;;;;4.90;3.53;;;;;;;8.50;60.31;99349.91;10267060;28;20051;-63
2022/11/06 19:43:22;;;;;;;8.25;3.53;;;;;;;8.44;60.04;99339.88;10299006;28;20066;-63
2022/11/06 19:48:24;;;;;;;6.75;3.45;;;;;;;8.44;60.34;99343.31;10276984;28;20054;-64
2022/11/06 19:53:26;;;;;;;5.00;3.10;;;;;;;8.35;60.09;99351.66;10307249;28;20050;-64
2022/11/06 19:58:28;;;;;;;5.90;3.30;;;;;;;8.33;60.28;99340.50;10290431;28;20046;-64
2022/11/06 20:03:29;;;;;;;4.90;3.10;;;;;;;8.29;60.22;99345.97;10273872;28;20655;-64
2022/11/06 20:08:31;;;;;;;6.20;3.22;;;;;;;8.23;60.43;99352.41;10279860;28;20050;-64
2022/11/06 20:13:35;;;;;;;5.25;3.20;;;;;;;8.20;60.59;99369.97;10288611;28;20487;-64
2022/11/06 20:18:37;;;;;;;5.25;3.20;;;;;;;8.25;60.18;99370.53;10289702;28;20488;-65
2022/11/06 20:23:39;;;;;;;8.35;4.18;;;;;;;8.37;60.20;99375.88;10288338;28;20049;-64
2022/11/06 20:28:41;;;;;;;8.45;3.88;;;;;;;8.52;60.02;99385.38;10279905;28;20221;-64
2022/11/06 20:33:42;;;;;;;8.70;6.13;;;;;;;8.55;59.72;99389.56;10303496;28;20046;-64
2022/11/06 20:38:45;;;;;;;12.65;6.10;;;;;;;8.67;59.72;99399.22;10281436;28;20053;-64
2022/11/06 20:43:47;;;;;;;10.48;6.22;;;;;;;8.74;59.45;99400.56;10293678;28;20409;-64
2022/11/06 20:48:49;;;;;;;7.35;4.68;;;;;;;8.79;59.08;99403.75;10281721;28;20043;-64
2022/11/06 20:53:51;;;;;;;9.00;4.95;;;;;;;8.93;59.08;99405.50;10268509;28;20053;-64
2022/11/06 20:58:54;;;;;;;8.77;5.68;;;;;;;9.00;58.86;99407.63;10276550;28;20056;-64
2022/11/06 21:03:57;;;;;;;9.40;6.00;;;;;;;9.04;58.89;99403.03;10280909;28;20042;-65
2022/11/06 21:08:58;;;;;;;6.22;4.05;;;;;;;8.99;58.78;99405.97;10274998;28;20053;-65
2022/11/06 21:14:00;;;;;;;9.75;5.43;;;;;;;8.92;59.16;99409.03;10274686;28;20046;-64
2022/11/06 21:19:03;;;;;;;8.88;4.70;;;;;;;9.09;58.77;99427.94;10279402;28;20066;-65
2022/11/06 21:24:06;;;;;;;7.43;4.55;;;;;;;9.11;58.97;99439.13;10281147;28;20192;-65
2022/11/06 21:29:09;;;;;;;10.43;5.72;;;;;;;9.15;59.00;99430.16;10274644;28;20299;-64
2022/11/06 21:34:11;;;;;;;8.38;4.60;;;;;;;9.24;58.86;99441.81;10282688;28;20153;-64
2022/11/06 21:39:15;;;;;;;6.35;3.83;;;;;;;9.34;58.78;99450.75;10268159;28;20043;-64
2022/11/06 21:44:17;;;;;;;8.52;4.30;;;;;;;9.40;58.82;99459.00;10283372;28;20521;-64
2022/11/06 21:49:19;;;;;;;7.35;3.83;;;;;;;9.40;58.67;99464.22;10279068;28;20046;-64
2022/11/06 21:59:41;;;;;;;11.27;5.60;;;;;;;9.46;58.85;99468.25;10271433;28;20042;-63
2022/11/06 22:04:42;;;;;;;6.22;3.60;;;;;;;9.35;59.23;99453.25;10271986;28;20053;-63
2022/11/06 22:09:44;;;;;;;7.32;4.78;;;;;;;9.32;59.48;99453.44;10282444;28;20047;-64
2022/11/06 22:14:46;;;;;;;6.60;3.60;;;;;;;9.38;59.56;99454.84;10265371;28;20444;-64
2022/11/06 22:19:47;;;;;;;6.40;3.28;;;;;;;9.38;59.72;99458.25;10288234;28;20051;-63
2022/11/06 22:24:49;;;;;;;5.68;2.83;;;;;;;9.43;59.73;99464.03;10284646;28;20062;-63
2022/11/06 22:29:51;;;;;;;6.72;3.03;;;;;;;9.45;60.10;99466.56;10278626;28;20047;-63
2022/11/06 22:34:52;;;;;;;6.70;3.40;;;;;;;9.47;60.15;99464.69;10266029;28;20537;-64
2022/11/06 22:39:54;;;;;;;7.55;4.68;;;;;;;9.51;60.19;99463.56;10279217;28;20050;-63
2022/11/06 22:44:56;;;;;;;7.10;3.40;;;;;;;9.42;60.69;99457.13;10278225;28;20081;-63
2022/11/06 22:49:58;;;;;;;6.82;3.92;;;;;;;9.35;61.15;99468.91;10283828;28;20398;-63
2022/11/06 22:54:59;;;;;;;6.65;3.10;;;;;;;9.43;61.17;99484.09;10264081;28;20057;-63
2022/11/06 23:00:02;;;;;;;10.10;4.43;;;;;;;9.54;61.18;99484.25;10264757;28;20045;-63
2022/11/06 23:05:04;;;;;;;9.55;3.85;;;;;;;9.54;61.40;99477.25;10279698;28;20047;-63
2022/11/06 23:10:07;;;;;;;4.30;2.60;;;;;;;9.67;61.25;99484.38;10293754;28;20043;-63
2022/11/06 23:15:09;;;;;;;6.60;4.05;;;;;;;9.71;61.31;99491.91;10266495;28;20491;-63
2022/11/06 23:20:11;;;;;;;5.60;2.47;;;;;;;9.78;61.20;99501.03;10276945;28;20047;-63
2022/11/06 23:25:13;;;;;;;4.85;2.33;;;;;;;9.82;61.31;99492.06;10281445;28;20054;-63
2022/11/06 23:30:15;;;;;;;5.25;2.30;;;;;;;9.79;61.51;99501.88;10268152;28;20046;-64
2022/11/06 23:35:17;;;;;;;4.60;2.35;;;;;;;9.84;61.56;99498.03;10300970;28;20065;-63
2022/11/06 23:40:23;;;;;;;4.38;2.30;;;;;;;9.90;61.61;99510.69;10269638;28;20619;-63
2022/11/06 23:50:45;;;;;;;4.30;2.10;;;;;;;9.95;61.76;99506.00;10280594;28;20051;-63
2022/11/06 23:55:47;;;;;;;6.13;2.10;;;;;;;9.95;61.90;99523.47;10274911;28;20061;-63
